Time;durP1;ratioP1;P1;durP2;ratioP2;P2;SDS_P1;SDS_P2;PMS_P1;PMS_P2;Temp;Humidity;BMP_temperature;BMP_pressure;BME280_temperature;BME280_humidity;BME280_pressure;Samples;Min_cycle;Max_cycle;Signal;HPM_P1;HPM_P2
2022/09/16 00:00:33;;;;;;;1.48;0.85;;;22.70;47.10;;;;;;5050688;28;20085;-9
2022/09/16 00:03:00;;;;;;;1.02;0.93;;;22.70;47.10;;;;;;5051945;28;20131;-10
2022/09/16 00:05:28;;;;;;;1.33;1.00;;;22.70;47.10;;;;;;5052132;28;20091;-9
2022/09/16 00:07:54;;;;;;;1.92;0.80;;;22.80;47.10;;;;;;5051990;28;20060;-10
2022/09/16 00:10:20;;;;;;;1.58;0.93;;;22.70;47.10;;;;;;5052466;28;20045;-10
2022/09/16 00:12:46;;;;;;;1.33;1.02;;;22.70;47.10;;;;;;5051691;28;20048;-10
2022/09/16 00:15:13;;;;;;;1.42;0.90;;;22.70;47.10;;;;;;5052056;28;20053;-10
2022/09/16 00:17:39;;;;;;;2.03;1.00;;;22.70;47.10;;;;;;5051576;28;20056;-11
2022/09/16 00:20:05;;;;;;;1.58;0.80;;;22.70;47.10;;;;;;5051619;28;20056;-11
2022/09/16 00:22:31;;;;;;;2.30;1.08;;;22.70;47.60;;;;;;5051720;28;20506;-11
2022/09/16 00:24:56;;;;;;;1.33;0.98;;;22.70;47.10;;;;;;5051849;28;20086;-11
2022/09/16 00:27:22;;;;;;;0.95;0.90;;;22.70;47.10;;;;;;5051990;28;20494;-11
2022/09/16 00:29:47;;;;;;;1.67;1.25;;;22.80;47.10;;;;;;5051336;28;20441;-11
2022/09/16 00:32:13;;;;;;;1.13;0.95;;;22.70;47.10;;;;;;5052018;28;20074;-11
2022/09/16 00:34:39;;;;;;;1.48;0.95;;;22.70;47.10;;;;;;5051688;28;20506;-11
2022/09/16 00:37:07;;;;;;;1.13;1.02;;;22.70;47.20;;;;;;5052007;28;20056;-11
2022/09/16 00:39:33;;;;;;;1.27;1.10;;;22.70;47.20;;;;;;5051347;28;20060;-11
2022/09/16 00:42:01;;;;;;;0.98;0.70;;;22.70;47.20;;;;;;5051931;28;20060;-11
2022/09/16 00:44:52;;;;;;;1.15;0.98;;;22.70;47.10;;;;;;5051510;28;20053;-11
2022/09/16 00:47:29;;;;;;;1.43;1.00;;;22.70;47.10;;;;;;5051566;28;20084;-11
2022/09/16 00:50:06;;;;;;;1.75;0.90;;;22.70;47.10;;;;;;5051519;28;20053;-9
2022/09/16 00:52:33;;;;;;;1.10;1.00;;;22.70;47.10;;;;;;5051392;28;20113;-11
2022/09/16 00:55:02;;;;;;;0.82;0.82;;;22.70;47.20;;;;;;5051258;28;20049;-11
2022/09/16 00:57:29;;;;;;;1.13;1.02;;;22.70;47.20;;;;;;5051554;28;20121;-12
2022/09/16 00:59:55;;;;;;;1.48;0.90;;;22.70;47.20;;;;;;5051670;28;20493;-11
2022/09/16 01:02:22;;;;;;;1.42;0.90;;;22.70;47.20;;;;;;5051917;28;20053;-11
2022/09/16 01:04:59;;;;;;;1.25;1.00;;;22.70;47.20;;;;;;5051670;28;20053;-11
2022/09/16 01:07:47;;;;;;;1.70;1.27;;;22.70;47.20;;;;;;5051163;28;20079;-13
2022/09/16 01:10:16;;;;;;;1.63;1.20;;;22.60;47.10;;;;;;5051448;28;20482;-11
2022/09/16 01:12:45;;;;;;;1.13;0.90;;;22.70;47.20;;;;;;5049847;28;20448;-11
2022/09/16 01:15:12;;;;;;;1.05;0.90;;;22.70;47.20;;;;;;5051288;28;20063;-11
2022/09/16 01:17:55;;;;;;;1.90;0.98;;;22.70;47.20;;;;;;5051180;28;20060;-11
2022/09/16 01:20:33;;;;;;;1.40;0.77;;;22.70;47.10;;;;;;5051450;28;20084;-11
2022/09/16 01:23:23;;;;;;;1.73;1.30;;;22.70;47.20;;;;;;5050982;28;20128;-11
2022/09/16 01:26:16;;;;;;;1.77;1.13;;;22.70;47.20;;;;;;5051055;28;20513;-11
2022/09/16 01:29:13;;;;;;;1.50;1.00;;;22.70;47.20;;;;;;5051082;28;20088;-11
2022/09/16 01:32:02;;;;;;;2.10;0.90;;;22.70;47.20;;;;;;5051058;28;20493;-11
2022/09/16 01:34:45;;;;;;;1.55;1.13;;;22.70;47.20;;;;;;5050870;28;20171;-11
2022/09/16 01:37:22;;;;;;;1.08;0.98;;;22.70;47.20;;;;;;5051311;28;20063;-11
2022/09/16 01:40:01;;;;;;;1.38;1.00;;;22.70;47.20;;;;;;5051230;28;20071;-11
2022/09/16 01:42:46;;;;;;;1.10;1.00;;;22.70;47.20;;;;;;5050580;28;20057;-11
2022/09/16 01:45:21;;;;;;;1.30;1.00;;;22.70;47.20;;;;;;5050721;28;20056;-11
2022/09/16 01:48:09;;;;;;;1.13;1.02;;;22.70;47.20;;;;;;5050444;28;20494;-11
2022/09/16 01:50:50;;;;;;;1.42;1.08;;;22.70;47.20;;;;;;5051314;28;20061;-11
2022/09/16 01:53:25;;;;;;;1.00;0.90;;;22.70;47.20;;;;;;5051079;28;20056;-11
2022/09/16 01:55:55;;;;;;;1.48;0.80;;;22.70;47.20;;;;;;5050515;28;20056;-11
2022/09/16 01:58:39;;;;;;;1.33;0.90;;;22.70;47.20;;;;;;5050750;28;20049;-11
2022/09/16 02:01:11;;;;;;;1.13;0.93;;;22.60;47.10;;;;;;5051187;28;20490;-11
2022/09/16 02:03:46;;;;;;;1.95;1.02;;;22.60;47.20;;;;;;5050443;28;20109;-11
2022/09/16 02:06:21;;;;;;;1.25;1.00;;;22.70;47.20;;;;;;5050673;28;20502;-11
2022/09/16 02:09:03;;;;;;;1.30;1.00;;;22.70;47.20;;;;;;5050910;28;20052;-11
2022/09/16 02:11:29;;;;;;;0.98;0.82;;;22.70;47.20;;;;;;5050866;28;20052;-11
2022/09/16 02:14:12;;;;;;;1.77;1.02;;;22.70;47.20;;;;;;5050467;28;20045;-11
2022/09/16 02:16:50;;;;;;;1.98;0.98;;;22.60;47.20;;;;;;5050370;28;20056;-11
2022/09/16 02:19:21;;;;;;;1.38;1.08;;;22.60;47.20;;;;;;5050028;28;20481;-11
2022/09/16 02:21:50;;;;;;;1.35;1.10;;;22.60;47.20;;;;;;5050445;28;20056;-11
2022/09/16 02:24:18;;;;;;;1.38;1.10;;;22.60;47.20;;;;;;5049673;28;20542;-11
2022/09/16 02:26:49;;;;;;;1.67;1.00;;;22.60;47.20;;;;;;5050216;28;20053;-9
2022/09/16 02:29:19;;;;;;;0.93;0.80;;;22.60;47.10;;;;;;5050280;28;20053;-11
2022/09/16 02:31:47;;;;;;;1.03;0.90;;;22.60;47.20;;;;;;5050863;28;20083;-10
2022/09/16 02:34:17;;;;;;;1.30;1.17;;;22.60;47.20;;;;;;5050086;28;20326;-9
2022/09/16 02:36:46;;;;;;;1.40;0.88;;;22.60;47.20;;;;;;5050201;28;20056;-9
2022/09/16 02:39:15;;;;;;;2.45;1.27;;;22.60;47.20;;;;;;5031410;28;20061;-10
2022/09/16 02:41:41;;;;;;;0.77;0.77;;;22.60;47.20;;;;;;5050308;28;20095;-10
2022/09/16 02:44:09;;;;;;;1.08;0.95;;;22.60;47.20;;;;;;5050062;28;20081;-10
2022/09/16 02:46:57;;;;;;;1.20;1.00;;;22.60;47.20;;;;;;5050007;28;20447;-10
2022/09/16 02:49:34;;;;;;;1.35;1.25;;;22.60;47.20;;;;;;5050046;28;20053;-10
2022/09/16 02:52:15;;;;;;;1.05;0.95;;;22.60;47.20;;;;;;5050309;28;20068;-9
2022/09/16 02:55:07;;;;;;;1.30;0.90;;;22.60;47.20;;;;;;5050257;28;20076;-9
2022/09/16 02:57:32;;;;;;;1.20;1.10;;;22.60;47.20;;;;;;5050229;28;20106;-10
2022/09/16 02:59:58;;;;;;;1.00;0.90;;;22.60;47.10;;;;;;5050369;28;20057;-9
2022/09/16 03:02:24;;;;;;;1.88;1.05;;;22.60;47.10;;;;;;5049661;28;20052;-9
2022/09/16 03:04:50;;;;;;;1.35;0.90;;;22.60;47.10;;;;;;5049717;28;20056;-9
2022/09/16 03:07:16;;;;;;;2.00;0.90;;;22.60;47.10;;;;;;5049919;28;20070;-10
2022/09/16 03:09:45;;;;;;;1.25;0.93;;;22.60;47.10;;;;;;5049953;28;20049;-10
2022/09/16 03:12:19;;;;;;;1.20;0.82;;;22.60;47.10;;;;;;5050042;28;20084;-10
2022/09/16 03:14:52;;;;;;;1.17;0.88;;;22.60;47.10;;;;;;5050195;28;20049;-9
2022/09/16 03:17:28;;;;;;;1.10;1.00;;;22.60;47.20;;;;;;5049440;28;20052;-10
2022/09/16 03:20:21;;;;;;;0.82;0.82;;;22.60;47.20;;;;;;5049853;28;20049;-10
2022/09/16 03:23:24;;;;;;;1.40;1.15;;;22.60;47.20;;;;;;5049492;28;20060;-9
2022/09/16 03:25:55;;;;;;;1.50;1.00;;;22.60;47.20;;;;;;5049723;28;20049;-10
2022/09/16 03:28:33;;;;;;;;;;;22.60;47.20;;;;;;5050056;28;20052;-10
2022/09/16 03:31:14;;;;;;;1.33;0.90;;;22.60;47.20;;;;;;5049493;28;19939;-9
2022/09/16 03:33:56;;;;;;;;;;;22.60;47.20;;;;;;5049746;28;20060;-9
2022/09/16 03:36:27;;;;;;;1.83;1.02;;;22.60;47.10;;;;;;5051736;28;19931;-12
2022/09/16 03:38:53;;;;;;;;;;;22.60;47.20;;;;;;5052610;28;20045;-9
2022/09/16 03:41:20;;;;;;;1.30;0.90;;;22.60;47.20;;;;;;5052338;28;19917;-10
2022/09/16 03:43:57;;;;;;;1.80;1.10;;;22.60;47.20;;;;;;5052262;28;20076;-10
2022/09/16 03:46:25;;;;;;;1.05;0.80;;;22.60;47.10;;;;;;5052810;28;20090;-10
2022/09/16 03:48:50;;;;;;;3.55;0.90;;;22.60;47.20;;;;;;5052805;28;20162;-10
2022/09/16 03:51:16;;;;;;;1.23;1.00;;;22.60;47.20;;;;;;5052220;28;20148;-10
2022/09/16 03:53:42;;;;;;;2.55;1.08;;;22.60;47.20;;;;;;5052115;28;20398;-9
2022/09/16 03:56:07;;;;;;;1.40;1.00;;;22.60;47.20;;;;;;5052125;28;20053;-10
2022/09/16 03:58:33;;;;;;;1.95;0.98;;;22.50;47.20;;;;;;5052076;28;20057;-10
2022/09/16 04:00:58;;;;;;;1.23;0.93;;;22.50;47.20;;;;;;5052444;28;20052;-9
2022/09/16 04:03:24;;;;;;;1.13;0.90;;;22.50;47.20;;;;;;5051928;28;20072;-9
2022/09/16 04:05:54;;;;;;;0.85;0.80;;;22.50;47.20;;;;;;5052673;28;20106;-9
2022/09/16 04:08:20;;;;;;;1.00;0.90;;;22.60;47.30;;;;;;5056468;28;20053;-9
2022/09/16 04:11:01;;;;;;;0.95;0.80;;;22.50;47.30;;;;;;5052016;28;20454;-10
2022/09/16 04:13:29;;;;;;;1.30;0.90;;;22.50;47.20;;;;;;5034179;28;20127;-9
2022/09/16 04:15:55;;;;;;;1.17;0.90;;;22.50;47.20;;;;;;5051643;28;20060;-10
2022/09/16 04:18:21;;;;;;;1.30;1.02;;;22.50;47.20;;;;;;5051953;28;20049;-10
2022/09/16 04:20:47;;;;;;;1.35;1.00;;;22.50;47.20;;;;;;5052410;28;20049;-9
2022/09/16 04:23:12;;;;;;;1.58;1.00;;;22.50;47.20;;;;;;5051739;28;20088;-9
2022/09/16 04:25:39;;;;;;;1.48;1.10;;;22.50;47.20;;;;;;5052169;28;20048;-9
2022/09/16 04:28:06;;;;;;;0.80;0.80;;;22.50;47.20;;;;;;5051947;28;20074;-10
2022/09/16 04:30:33;;;;;;;1.55;0.80;;;22.50;47.20;;;;;;5051625;28;20486;-9
2022/09/16 04:32:59;;;;;;;1.00;0.90;;;22.50;47.20;;;;;;5051682;28;20177;-10
2022/09/16 04:35:25;;;;;;;1.13;0.90;;;22.50;47.20;;;;;;5051744;28;20053;-9
2022/09/16 04:37:51;;;;;;;1.05;0.98;;;22.50;47.20;;;;;;5051510;28;20516;-10
2022/09/16 04:40:18;;;;;;;2.28;1.10;;;22.50;47.20;;;;;;5052020;28;20049;-10
2022/09/16 04:42:50;;;;;;;1.67;1.17;;;22.50;47.20;;;;;;5051651;28;20057;-10
2022/09/16 04:45:17;;;;;;;0.80;0.60;;;22.50;47.20;;;;;;5051618;28;20140;-10
2022/09/16 04:47:42;;;;;;;0.88;0.80;;;22.50;47.30;;;;;;5051891;28;20071;-10
2022/09/16 04:50:09;;;;;;;1.05;0.93;;;22.50;47.20;;;;;;5051442;28;20410;-10
2022/09/16 04:52:35;;;;;;;1.58;1.00;;;22.50;47.30;;;;;;5051450;28;20561;-9
2022/09/16 04:55:01;;;;;;;1.33;0.98;;;22.50;47.20;;;;;;5051215;28;20147;-10
2022/09/16 04:57:31;;;;;;;1.45;0.90;;;22.50;47.30;;;;;;5051428;28;20057;-10
2022/09/16 04:59:57;;;;;;;1.30;1.13;;;22.50;47.30;;;;;;5051326;28;20059;-9
2022/09/16 05:02:22;;;;;;;0.77;0.70;;;22.50;47.30;;;;;;5051327;28;20493;-9
2022/09/16 05:04:48;;;;;;;1.33;0.93;;;22.50;47.30;;;;;;5051366;28;20517;-10
2022/09/16 05:07:14;;;;;;;0.70;0.70;;;22.50;47.30;;;;;;5051270;28;20455;-9
2022/09/16 05:09:40;;;;;;;1.00;0.90;;;22.50;47.30;;;;;;5051282;28;20143;-10
2022/09/16 05:12:06;;;;;;;1.33;1.00;;;22.50;47.20;;;;;;5051160;28;20493;-10
2022/09/16 05:14:31;;;;;;;1.35;1.20;;;22.50;47.20;;;;;;5051194;28;20048;-10
2022/09/16 05:16:57;;;;;;;0.73;0.70;;;22.50;47.20;;;;;;5051053;28;20051;-11
2022/09/16 05:19:23;;;;;;;0.98;0.88;;;22.50;47.20;;;;;;5050905;28;20057;-9
2022/09/16 05:21:49;;;;;;;0.70;0.70;;;22.50;47.20;;;;;;5051402;28;20053;-11
2022/09/16 05:24:14;;;;;;;2.03;1.08;;;22.50;47.20;;;;;;5051006;28;20041;-10
2022/09/16 05:26:42;;;;;;;1.42;1.10;;;22.50;47.20;;;;;;5051125;28;20494;-10
2022/09/16 05:29:11;;;;;;;1.08;0.88;;;22.50;47.20;;;;;;5050725;28;20144;-10
2022/09/16 05:31:39;;;;;;;1.15;0.90;;;22.50;47.20;;;;;;5050875;28;20384;-9
2022/09/16 05:34:17;;;;;;;1.38;0.82;;;22.50;47.20;;;;;;5050860;28;20049;-10
2022/09/16 05:36:43;;;;;;;1.13;0.75;;;22.50;47.20;;;;;;5051126;28;20067;-10
2022/09/16 05:39:15;;;;;;;1.50;0.75;;;22.50;47.10;;;;;;5050720;28;20057;-9
2022/09/16 05:41:41;;;;;;;0.95;0.80;;;22.60;47.10;;;;;;5050758;28;20060;-10
2022/09/16 05:44:07;;;;;;;1.15;0.85;;;22.70;47.00;;;;;;5050596;28;20045;-11
2022/09/16 05:46:32;;;;;;;1.08;0.90;;;22.70;46.80;;;;;;5050749;28;20057;-10
2022/09/16 05:48:58;;;;;;;1.10;1.00;;;22.80;46.80;;;;;;5051194;28;20060;-10
2022/09/16 05:51:24;;;;;;;0.60;0.60;;;22.70;46.70;;;;;;5050738;28;20185;-10
2022/09/16 05:53:52;;;;;;;1.90;0.80;;;22.70;46.80;;;;;;5051162;28;20105;-10
2022/09/16 05:56:20;;;;;;;1.17;0.90;;;22.70;46.80;;;;;;5050843;28;20059;-10
2022/09/16 05:58:47;;;;;;;1.40;1.00;;;22.70;46.90;;;;;;5049778;28;20082;-10
2022/09/16 06:01:17;;;;;;;1.42;0.98;;;22.70;46.90;;;;;;5050797;28;20084;-10
2022/09/16 06:03:44;;;;;;;0.82;0.80;;;22.70;46.90;;;;;;5050969;28;20451;-10
2022/09/16 06:06:21;;;;;;;1.08;0.90;;;22.80;46.80;;;;;;5050454;28;20106;-10
2022/09/16 06:08:46;;;;;;;1.13;0.70;;;22.80;46.60;;;;;;5050440;28;20080;-9
2022/09/16 06:11:12;;;;;;;1.65;1.00;;;22.90;46.40;;;;;;5050488;28;20052;-10
2022/09/16 06:13:38;;;;;;;2.80;1.00;;;23.00;46.30;;;;;;5050536;28;20171;-10
2022/09/16 06:16:05;;;;;;;2.85;1.25;;;23.10;46.20;;;;;;5050509;28;20066;-10
2022/09/16 06:18:32;;;;;;;1.65;1.10;;;23.10;46.00;;;;;;5050196;28;20056;-10
2022/09/16 06:21:02;;;;;;;0.93;0.90;;;23.20;45.80;;;;;;5050317;28;20057;-10
2022/09/16 06:23:27;;;;;;;0.88;0.70;;;23.20;45.80;;;;;;5050267;28;20056;-10
2022/09/16 06:26:01;;;;;;;1.02;0.80;;;23.30;45.70;;;;;;5050675;28;20394;-10
2022/09/16 06:28:27;;;;;;;1.30;1.10;;;23.30;45.60;;;;;;5050405;28;20057;-10
2022/09/16 06:31:15;;;;;;;0.93;0.82;;;23.30;45.60;;;;;;5050335;28;20450;-10
2022/09/16 06:33:42;;;;;;;3.40;0.90;;;23.40;45.40;;;;;;5050176;28;20442;-10
2022/09/16 06:36:13;;;;;;;1.33;1.00;;;23.50;45.40;;;;;;5050108;28;20041;-10
2022/09/16 06:38:39;;;;;;;2.03;1.00;;;23.50;45.20;;;;;;5050314;28;20542;-10
2022/09/16 06:41:07;;;;;;;1.45;1.10;;;23.60;45.10;;;;;;5050165;28;20504;-10
2022/09/16 06:43:33;;;;;;;2.08;1.00;;;23.60;45.00;;;;;;5049756;28;20045;-10
2022/09/16 06:46:01;;;;;;;2.03;0.90;;;23.70;44.90;;;;;;5050532;28;20147;-10
2022/09/16 06:48:28;;;;;;;1.05;0.95;;;23.70;45.00;;;;;;5050015;28;20053;-10
2022/09/16 06:51:05;;;;;;;4.18;1.10;;;23.70;44.90;;;;;;5050179;28;20405;-10
2022/09/16 06:53:31;;;;;;;1.08;0.88;;;23.80;44.80;;;;;;5050226;28;20049;-10
2022/09/16 06:56:02;;;;;;;1.33;0.93;;;23.90;44.50;;;;;;5050177;28;20049;-10
2022/09/16 06:58:31;;;;;;;;;;;24.00;44.40;;;;;;5050528;28;20064;-10
2022/09/16 07:00:56;;;;;;;1.10;0.90;;;24.10;44.20;;;;;;5049878;28;19923;-10
2022/09/16 07:03:22;;;;;;;1.30;0.75;;;24.20;44.00;;;;;;5049936;28;20056;-10
2022/09/16 07:06:00;;;;;;;1.95;1.00;;;24.20;43.90;;;;;;5049737;28;20056;-10
2022/09/16 07:08:27;;;;;;;1.38;1.02;;;24.20;43.80;;;;;;5049698;28;20044;-10
2022/09/16 07:10:58;;;;;;;1.00;0.88;;;24.30;43.80;;;;;;5049628;28;20121;-10
2022/09/16 07:13:24;;;;;;;1.80;0.98;;;24.40;43.70;;;;;;5050148;28;20523;-10
2022/09/16 07:15:50;;;;;;;1.50;0.80;;;24.40;43.60;;;;;;5049672;28;20406;-10
2022/09/16 07:18:15;;;;;;;1.42;0.80;;;24.40;43.60;;;;;;5049435;28;20049;-10
2022/09/16 07:20:41;;;;;;;1.45;1.10;;;24.40;43.70;;;;;;5049978;28;20117;-10
2022/09/16 07:23:07;;;;;;;1.60;0.80;;;24.30;43.70;;;;;;5049743;28;20063;-10
2022/09/16 07:25:32;;;;;;;0.70;0.70;;;24.20;43.90;;;;;;5049491;28;20088;-11
2022/09/16 07:27:58;;;;;;;1.50;0.82;;;24.10;44.20;;;;;;5049779;28;20049;-11
2022/09/16 07:30:24;;;;;;;2.92;0.95;;;24.20;44.00;;;;;;5049418;28;20057;-10
2022/09/16 07:32:49;;;;;;;1.77;1.10;;;24.20;43.90;;;;;;5049749;28;20068;-11
2022/09/16 07:35:15;;;;;;;1.38;0.80;;;24.30;44.10;;;;;;5049321;28;20078;-11
2022/09/16 07:37:40;;;;;;;2.75;0.93;;;24.40;43.60;;;;;;5049684;28;20084;-11
2022/09/16 07:40:07;;;;;;;1.45;0.90;;;24.40;43.50;;;;;;5049331;28;20068;-10
2022/09/16 07:42:32;;;;;;;0.88;0.85;;;24.50;43.50;;;;;;5049025;28;20061;-11
2022/09/16 07:44:58;;;;;;;1.25;0.93;;;24.50;43.40;;;;;;5049431;28;20057;-10
2022/09/16 07:47:23;;;;;;;0.70;0.70;;;24.50;43.30;;;;;;5049286;28;20064;-11
2022/09/16 07:49:54;;;;;;;1.55;0.90;;;24.50;43.30;;;;;;5049438;28;20149;-10
2022/09/16 07:52:22;;;;;;;0.85;0.73;;;24.60;43.30;;;;;;5049465;28;20049;-10
2022/09/16 07:54:49;;;;;;;0.88;0.70;;;24.50;43.40;;;;;;5049019;28;20053;-10
2022/09/16 07:57:14;;;;;;;0.85;0.80;;;24.50;43.30;;;;;;5049113;28;20065;-11
2022/09/16 07:59:40;;;;;;;1.40;0.95;;;24.50;43.30;;;;;;5048935;28;20055;-11
2022/09/16 08:02:05;;;;;;;2.92;0.90;;;24.50;43.90;;;;;;5048972;28;20060;-11
2022/09/16 08:04:31;;;;;;;1.33;0.82;;;24.40;43.50;;;;;;5047434;28;20051;-10
2022/09/16 08:06:56;;;;;;;1.67;1.05;;;24.50;43.50;;;;;;5049340;28;20053;-10
2022/09/16 08:09:22;;;;;;;1.10;0.98;;;24.40;43.60;;;;;;5048749;28;20128;-10
2022/09/16 08:11:48;;;;;;;1.40;1.00;;;24.20;43.70;;;;;;5049410;28;20060;-10
2022/09/16 08:14:13;;;;;;;2.35;1.02;;;24.10;43.90;;;;;;5048725;28;20387;-11
2022/09/16 08:16:39;;;;;;;0.90;0.77;;;24.10;44.20;;;;;;5048764;28;20056;-11
2022/09/16 08:19:05;;;;;;;1.77;0.95;;;24.00;44.30;;;;;;5048561;28;20091;-11
2022/09/16 08:21:30;;;;;;;0.70;0.60;;;23.90;44.40;;;;;;5050623;28;20060;-11
2022/09/16 08:23:56;;;;;;;1.77;0.90;;;23.90;44.50;;;;;;5051710;28;20053;-11
2022/09/16 08:26:22;;;;;;;2.70;0.80;;;23.90;44.50;;;;;;5051680;28;20053;-11
2022/09/16 08:28:49;;;;;;;1.20;1.00;;;23.90;44.60;;;;;;5051746;28;20045;-11
2022/09/16 08:31:16;;;;;;;1.45;0.90;;;23.90;44.50;;;;;;5052163;28;20048;-11
2022/09/16 08:33:42;;;;;;;1.40;1.00;;;23.90;44.50;;;;;;5051767;28;20172;-11
2022/09/16 08:36:16;;;;;;;0.95;0.85;;;23.90;44.50;;;;;;5051526;28;20060;-11
2022/09/16 08:38:43;;;;;;;0.90;0.77;;;23.90;44.50;;;;;;5051539;28;20493;-11
2022/09/16 08:41:23;;;;;;;0.82;0.70;;;23.90;44.50;;;;;;5051983;28;20061;-11
2022/09/16 08:44:21;;;;;;;1.40;1.00;;;23.90;44.50;;;;;;5051458;28;20037;-11
2022/09/16 08:46:56;;;;;;;3.22;1.23;;;23.90;44.60;;;;;;5051309;28;20060;-11
2022/09/16 08:49:27;;;;;;;1.83;0.90;;;23.90;44.60;;;;;;5051759;28;20159;-11
2022/09/16 08:51:54;;;;;;;1.50;1.10;;;23.90;44.60;;;;;;5051708;28;20049;-11
2022/09/16 08:54:38;;;;;;;1.08;0.80;;;23.80;44.60;;;;;;5051593;28;20049;-11
2022/09/16 08:57:05;;;;;;;0.75;0.68;;;23.80;44.70;;;;;;5051151;28;20080;-11
2022/09/16 08:59:49;;;;;;;1.70;0.80;;;23.70;44.70;;;;;;5051842;28;20057;-11
2022/09/16 09:02:46;;;;;;;1.45;0.95;;;23.80;44.80;;;;;;5051643;28;20148;-11
2022/09/16 09:05:23;;;;;;;2.22;0.85;;;23.80;44.70;;;;;;5051396;28;20456;-11
2022/09/16 09:08:06;;;;;;;2.05;1.05;;;23.80;44.70;;;;;;5051054;28;20056;-11
2022/09/16 09:10:47;;;;;;;2.38;1.00;;;23.80;44.70;;;;;;5051165;28;20132;-12
2022/09/16 09:13:36;;;;;;;1.63;0.90;;;23.80;44.70;;;;;;5051213;28;20448;-11
2022/09/16 09:16:35;;;;;;;1.15;0.93;;;23.70;44.70;;;;;;5050819;28;20449;-11
2022/09/16 09:19:20;;;;;;;1.13;0.90;;;23.70;44.70;;;;;;5050875;28;20079;-11
2022/09/16 09:22:02;;;;;;;2.10;1.00;;;23.80;44.80;;;;;;5050901;28;20056;-11
2022/09/16 09:24:47;;;;;;;1.58;1.00;;;23.70;44.80;;;;;;5050862;28;20056;-11
2022/09/16 09:27:42;;;;;;;0.73;0.63;;;23.70;44.80;;;;;;5051329;28;20049;-11
2022/09/16 09:30:19;;;;;;;1.42;1.05;;;23.70;44.90;;;;;;5052455;28;20128;-11
2022/09/16 09:33:24;;;;;;;1.73;0.90;;;23.70;45.00;;;;;;5049936;28;20049;-11
2022/09/16 09:36:07;;;;;;;3.47;0.98;;;23.60;45.00;;;;;;5051353;28;20049;-11
2022/09/16 09:39:18;;;;;;;1.40;0.90;;;23.50;45.00;;;;;;5051018;28;20110;-11
2022/09/16 09:42:11;;;;;;;1.40;1.07;;;23.50;45.20;;;;;;5058322;28;20061;-11
2022/09/16 09:44:50;;;;;;;1.42;0.90;;;23.40;45.30;;;;;;5050647;28;20053;-11
2022/09/16 09:47:32;;;;;;;1.55;1.10;;;23.40;45.30;;;;;;5051413;28;20053;-11
2022/09/16 09:50:11;;;;;;;1.20;0.90;;;23.40;45.30;;;;;;5050707;28;20098;-11
2022/09/16 09:52:51;;;;;;;0.95;0.80;;;23.50;45.80;;;;;;5050837;28;20061;-11
2022/09/16 09:55:21;;;;;;;2.22;0.95;;;23.50;45.20;;;;;;5050902;28;20065;-11
2022/09/16 09:57:58;;;;;;;2.35;1.05;;;23.50;45.10;;;;;;5050404;28;20562;-11
2022/09/16 10:00:24;;;;;;;1.00;0.90;;;23.50;45.10;;;;;;5050649;28;20509;-11
2022/09/16 10:02:50;;;;;;;2.35;0.80;;;23.50;45.20;;;;;;5050307;28;20053;-12
2022/09/16 10:05:23;;;;;;;0.98;0.90;;;23.50;45.20;;;;;;5050548;28;20500;-11
2022/09/16 10:07:56;;;;;;;2.22;1.45;;;23.50;45.10;;;;;;5050629;28;20084;-11
2022/09/16 10:10:24;;;;;;;2.30;0.90;;;23.50;45.10;;;;;;5050471;28;20399;-11
2022/09/16 10:12:50;;;;;;;1.92;1.00;;;23.50;45.00;;;;;;5050313;28;20049;-12
2022/09/16 10:15:26;;;;;;;2.08;0.93;;;23.50;45.00;;;;;;5050596;28;20045;-11
2022/09/16 10:17:53;;;;;;;0.98;0.70;;;23.60;45.00;;;;;;5050443;28;20497;-11
2022/09/16 10:20:33;;;;;;;3.70;1.15;;;23.60;45.00;;;;;;5050254;28;20144;-11
2022/09/16 10:23:03;;;;;;;2.33;0.90;;;23.60;45.00;;;;;;5050679;28;20144;-11
2022/09/16 10:25:31;;;;;;;3.00;1.00;;;23.60;44.90;;;;;;5050316;28;20093;-11
2022/09/16 10:28:00;;;;;;;1.30;1.05;;;23.60;44.90;;;;;;5050165;28;20417;-11
2022/09/16 10:30:33;;;;;;;2.45;1.23;;;23.60;44.90;;;;;;5050660;28;20053;-11
2022/09/16 10:33:11;;;;;;;3.15;0.80;;;23.60;44.90;;;;;;5050539;28;20056;-11
2022/09/16 10:35:39;;;;;;;1.17;0.80;;;23.60;44.90;;;;;;5050252;28;20101;-11
2022/09/16 10:38:21;;;;;;;2.28;1.10;;;23.60;45.50;;;;;;5050084;28;20084;-11
2022/09/16 10:40:54;;;;;;;1.08;0.80;;;23.60;44.80;;;;;;5048155;28;20048;-11
2022/09/16 10:43:21;;;;;;;1.42;0.90;;;23.70;44.80;;;;;;5049955;28;20102;-11
2022/09/16 10:45:50;;;;;;;2.08;0.90;;;23.70;44.80;;;;;;5050510;28;20382;-11
2022/09/16 10:48:19;;;;;;;2.80;0.93;;;23.70;44.80;;;;;;5049683;28;20056;-12
2022/09/16 10:51:02;;;;;;;2.03;0.98;;;23.70;44.80;;;;;;5050014;28;20048;-11
2022/09/16 10:53:33;;;;;;;0.80;0.80;;;23.70;44.70;;;;;;5049901;28;20057;-11
2022/09/16 10:56:02;;;;;;;1.42;0.90;;;23.70;44.70;;;;;;5050504;28;20064;-11
2022/09/16 10:58:28;;;;;;;1.35;0.90;;;23.70;44.70;;;;;;5049822;28;20401;-11
2022/09/16 11:01:11;;;;;;;1.42;1.00;;;23.70;44.60;;;;;;5050214;28;20049;-11
2022/09/16 11:03:58;;;;;;;2.22;0.98;;;23.80;44.60;;;;;;5049707;28;20053;-11
2022/09/16 11:06:52;;;;;;;1.30;0.82;;;23.80;44.50;;;;;;5049744;28;20401;-11
2022/09/16 11:09:26;;;;;;;1.23;0.80;;;23.80;44.50;;;;;;5049765;28;20053;-11
2022/09/16 11:12:20;;;;;;;1.00;0.93;;;23.80;44.40;;;;;;5049649;28;20053;-11
2022/09/16 11:15:04;;;;;;;1.60;0.90;;;23.80;44.50;;;;;;5049991;28;20079;-10
2022/09/16 11:17:35;;;;;;;1.52;0.90;;;23.80;44.50;;;;;;5049803;28;20049;-11
2022/09/16 11:20:30;;;;;;;1.88;1.02;;;23.80;44.60;;;;;;5049586;28;20053;-11
2022/09/16 11:23:18;;;;;;;1.40;1.00;;;23.70;44.60;;;;;;5049669;28;20502;-11
2022/09/16 11:25:52;;;;;;;1.83;0.90;;;23.60;44.80;;;;;;5049449;28;20080;-10
2022/09/16 11:28:43;;;;;;;1.15;0.90;;;23.60;44.80;;;;;;5049793;28;20395;-11
2022/09/16 11:31:39;;;;;;;1.77;1.15;;;23.50;44.90;;;;;;5050065;28;20133;-10
2022/09/16 11:34:25;;;;;;;3.08;0.90;;;23.60;44.90;;;;;;5049379;28;20057;-11
2022/09/16 11:37:24;;;;;;;1.60;1.08;;;23.50;44.90;;;;;;5049581;28;20080;-11
2022/09/16 11:39:58;;;;;;;1.33;0.80;;;23.60;44.90;;;;;;5049091;28;20550;-10
2022/09/16 11:42:31;;;;;;;2.15;0.90;;;23.60;44.80;;;;;;5049580;28;20045;-11
2022/09/16 11:45:10;;;;;;;1.60;1.02;;;23.60;44.80;;;;;;5049452;28;20462;-11
2022/09/16 11:48:16;;;;;;;0.93;0.85;;;23.70;44.80;;;;;;5049095;28;20053;-10
2022/09/16 11:51:05;;;;;;;1.83;0.88;;;23.70;44.70;;;;;;5049400;28;20053;-10
2022/09/16 11:53:57;;;;;;;2.90;1.05;;;23.60;44.70;;;;;;5049373;28;20101;-11
2022/09/16 11:56:45;;;;;;;1.02;0.73;;;23.60;44.80;;;;;;5050239;28;20049;-10
2022/09/16 11:59:26;;;;;;;1.83;0.73;;;23.60;44.80;;;;;;5052235;28;20093;-10
2022/09/16 12:02:01;;;;;;;1.42;1.00;;;23.60;44.70;;;;;;5052020;28;20071;-10
2022/09/16 12:04:52;;;;;;;1.42;0.68;;;23.60;44.80;;;;;;5051784;28;20104;-11
2022/09/16 12:07:29;;;;;;;2.22;0.90;;;23.60;44.80;;;;;;5054101;28;20057;-11
2022/09/16 12:10:13;;;;;;;2.25;1.13;;;23.60;44.80;;;;;;5052434;28;20486;-10
2022/09/16 12:12:46;;;;;;;2.03;1.10;;;23.60;44.70;;;;;;5051747;28;20064;-11
2022/09/16 12:15:39;;;;;;;1.23;0.70;;;23.60;44.80;;;;;;5051655;28;20147;-11
2022/09/16 12:18:20;;;;;;;2.55;0.73;;;23.60;44.70;;;;;;5051648;28;20061;-11
2022/09/16 12:21:15;;;;;;;1.13;0.93;;;23.60;44.60;;;;;;5051621;28;20057;-11
2022/09/16 12:23:44;;;;;;;1.52;1.20;;;23.60;44.60;;;;;;5052537;28;20132;-11
2022/09/16 12:26:27;;;;;;;1.02;0.90;;;23.60;44.80;;;;;;5051811;28;20084;-10
2022/09/16 12:29:10;;;;;;;1.77;0.85;;;23.50;44.70;;;;;;5051672;28;20060;-11
2022/09/16 12:31:48;;;;;;;1.58;1.00;;;23.50;44.90;;;;;;5051656;28;20049;-10
2022/09/16 12:34:25;;;;;;;1.52;1.02;;;23.50;45.00;;;;;;5051819;28;20079;-11
2022/09/16 12:37:13;;;;;;;2.58;1.15;;;23.40;45.00;;;;;;5051904;28;20049;-11
2022/09/16 12:39:39;;;;;;;1.45;0.95;;;23.50;45.00;;;;;;5051359;28;20060;-11
2022/09/16 12:42:42;;;;;;;1.33;0.77;;;23.50;44.80;;;;;;5051531;28;20060;-11
2022/09/16 12:45:41;;;;;;;0.90;0.75;;;23.60;44.80;;;;;;5051192;28;20085;-10
2022/09/16 12:48:33;;;;;;;1.88;0.98;;;23.50;44.80;;;;;;5051248;28;20486;-11
2022/09/16 12:51:15;;;;;;;1.15;1.00;;;23.50;44.70;;;;;;5051560;28;20053;-10
2022/09/16 12:54:03;;;;;;;1.27;0.80;;;23.60;44.80;;;;;;5051474;28;20091;-10
2022/09/16 12:57:07;;;;;;;1.60;0.85;;;23.50;44.80;;;;;;5051650;28;20490;-11
2022/09/16 13:00:20;;;;;;;1.10;0.70;;;23.50;44.80;;;;;;5051409;28;20136;-11
2022/09/16 13:02:55;;;;;;;1.73;1.00;;;23.50;45.00;;;;;;5059360;28;20053;-11
2022/09/16 13:05:43;;;;;;;1.08;0.70;;;23.50;45.00;;;;;;5051542;28;20073;-10
2022/09/16 13:08:22;;;;;;;2.13;0.85;;;23.50;45.00;;;;;;5051331;28;20045;-11
2022/09/16 13:11:00;;;;;;;1.35;0.80;;;23.40;44.90;;;;;;5051272;28;20053;-10
2022/09/16 13:13:31;;;;;;;2.42;0.85;;;23.50;44.90;;;;;;5051443;28;20077;-10
2022/09/16 13:16:00;;;;;;;1.50;0.93;;;23.50;44.90;;;;;;5051172;28;20478;-11
2022/09/16 13:18:50;;;;;;;2.28;1.10;;;23.40;44.90;;;;;;5051157;28;20060;-10
2022/09/16 13:21:24;;;;;;;1.10;0.93;;;23.50;45.00;;;;;;5052647;28;20490;-10